createdAt,value
2022-09-12T00:00:52.155Z,79.13
2022-09-12T00:03:18.663Z,79.39
2022-09-12T00:05:46.660Z,79.75
2022-09-12T00:08:14.491Z,79.88
2022-09-12T00:10:43.252Z,79.78
2022-09-12T00:13:10.142Z,79.30
2022-09-12T00:15:44.006Z,79.54
2022-09-12T00:18:14.277Z,79.88
2022-09-12T00:20:46.139Z,80.01
2022-09-12T00:23:13.122Z,79.91
2022-09-12T00:25:47.631Z,79.92
2022-09-12T00:28:16.636Z,80.13
2022-09-12T00:30:44.307Z,79.54
2022-09-12T00:33:11.523Z,79.56
2022-09-12T00:35:43.288Z,79.72
2022-09-12T00:38:10.083Z,79.74
2022-09-12T00:40:36.511Z,80.31
2022-09-12T00:43:03.076Z,80.77
2022-09-12T00:45:30.115Z,80.26
2022-09-12T00:48:01.224Z,80.15
2022-09-12T00:50:28.066Z,80.46
2022-09-12T00:53:07.896Z,80.31
2022-09-12T00:55:43.888Z,80.30
2022-09-12T00:58:24.624Z,79.87
2022-09-12T01:00:51.514Z,80.16
2022-09-12T01:03:20.515Z,80.61
2022-09-12T01:06:13.299Z,80.42
2022-09-12T01:08:41.630Z,80.85
2022-09-12T01:11:10.116Z,80.67
2022-09-12T01:13:37.330Z,80.60
2022-09-12T01:16:06.018Z,80.84
2022-09-12T01:18:47.482Z,81.27
2022-09-12T01:21:35.699Z,81.20
2022-09-12T01:24:33.441Z,80.88
2022-09-12T01:27:18.906Z,80.88
2022-09-12T01:29:58.281Z,81.02
2022-09-12T01:32:36.759Z,80.91
2022-09-12T01:35:42.164Z,80.85
2022-09-12T01:38:39.625Z,81.28
2022-09-12T01:41:21.026Z,80.97
2022-09-12T01:44:15.080Z,81.34
2022-09-12T01:46:47.280Z,81.55
2022-09-12T01:49:16.672Z,81.10
2022-09-12T01:52:04.887Z,81.06
2022-09-12T01:54:39.245Z,81.71
2022-09-12T01:57:18.608Z,81.88
2022-09-12T01:59:49.612Z,81.49
2022-09-12T02:02:23.989Z,81.33
2022-09-12T02:05:14.772Z,81.26
2022-09-12T02:07:48.699Z,81.50
2022-09-12T02:10:17.030Z,81.34
2022-09-12T02:12:49.454Z,81.67
2022-09-12T02:15:20.522Z,81.76
2022-09-12T02:17:50.511Z,81.93
2022-09-12T02:20:44.473Z,82.01
2022-09-12T02:23:16.346Z,81.97
2022-09-12T02:25:46.877Z,82.21
2022-09-12T02:28:25.305Z,81.34
2022-09-12T02:31:17.395Z,81.41
2022-09-12T02:34:02.043Z,82.51
2022-09-12T02:36:50.089Z,82.12
2022-09-12T02:39:20.867Z,81.77
2022-09-12T02:41:51.666Z,82.34
2022-09-12T02:44:18.919Z,82.40
2022-09-12T02:46:50.607Z,82.04
2022-09-12T02:49:17.416Z,82.37
2022-09-12T02:51:45.417Z,81.76
2022-09-12T02:54:13.771Z,82.45
2022-09-12T02:56:42.922Z,81.55
2022-09-12T02:59:11.656Z,82.69
2022-09-12T03:02:06.757Z,82.31
2022-09-12T03:04:58.592Z,82.11
2022-09-12T03:08:01.975Z,82.41
2022-09-12T03:11:06.002Z,82.40
2022-09-12T03:14:07.700Z,82.08
2022-09-12T03:16:49.437Z,82.12
2022-09-12T03:19:21.345Z,82.60
2022-09-12T03:22:35.862Z,82.01
2022-09-12T03:25:17.604Z,82.52
2022-09-12T03:27:57.155Z,82.21
2022-09-12T03:30:23.569Z,82.90
2022-09-12T03:32:52.675Z,82.61
2022-09-12T03:35:23.103Z,82.71
2022-09-12T03:37:51.028Z,82.74
2022-09-12T03:40:17.725Z,82.26
2022-09-12T03:42:44.126Z,83.17
2022-09-12T03:45:10.929Z,83.11
2022-09-12T03:47:37.591Z,82.30
2022-09-12T03:50:04.993Z,82.28
2022-09-12T03:52:31.424Z,82.64
2022-09-12T03:54:57.765Z,83.00
2022-09-12T03:57:24.120Z,83.13
2022-09-12T03:59:50.654Z,82.51
2022-09-12T04:02:17.679Z,83.58
2022-09-12T04:04:44.208Z,82.81
2022-09-12T04:07:11.656Z,82.79
2022-09-12T04:09:38.246Z,83.12
2022-09-12T04:12:05.221Z,83.04
2022-09-12T04:14:31.585Z,83.32
2022-09-12T04:16:58.083Z,83.10
2022-09-12T04:19:26.150Z,82.95
2022-09-12T04:21:52.913Z,83.39
2022-09-12T04:24:19.360Z,82.82
2022-09-12T04:26:45.720Z,83.26
2022-09-12T04:29:12.621Z,83.00
2022-09-12T04:31:39.371Z,83.43
2022-09-12T04:34:05.722Z,82.98
2022-09-12T04:36:34.250Z,82.85
2022-09-12T04:39:01.648Z,83.00
2022-09-12T04:41:31.529Z,83.37
2022-09-12T04:44:04.164Z,83.44
2022-09-12T04:46:33.918Z,84.17
2022-09-12T04:49:00.306Z,83.65
2022-09-12T04:51:30.157Z,82.90
2022-09-12T04:53:59.864Z,84.04
2022-09-12T04:56:27.793Z,83.69
2022-09-12T04:58:54.425Z,83.91
2022-09-12T05:01:23.090Z,83.70
2022-09-12T05:03:50.532Z,83.98
2022-09-12T05:06:22.796Z,83.35
2022-09-12T05:08:50.535Z,84.11
2022-09-12T05:11:24.078Z,84.22
2022-09-12T05:13:51.879Z,83.25
2022-09-12T05:16:19.586Z,83.17
2022-09-12T05:18:47.165Z,83.74
2022-09-12T05:21:16.023Z,84.02
2022-09-12T05:23:42.922Z,84.17
2022-09-12T05:26:13.399Z,83.42
2022-09-12T05:28:40.590Z,83.17
2022-09-12T05:31:15.599Z,83.28
2022-09-12T05:33:44.412Z,83.29
2022-09-12T05:36:14.358Z,83.84
2022-09-12T05:38:40.950Z,83.15
2022-09-12T05:41:17.533Z,83.52
2022-09-12T05:43:45.600Z,83.55
2022-09-12T05:46:14.497Z,83.20
2022-09-12T05:48:42.665Z,83.33
2022-09-12T05:51:12.574Z,83.91
2022-09-12T05:53:40.752Z,83.89
2022-09-12T05:56:09.153Z,82.95
2022-09-12T05:58:37.678Z,82.63
2022-09-12T06:01:12.352Z,83.60
2022-09-12T06:03:44.547Z,83.45
2022-09-12T06:06:13.725Z,82.61
2022-09-12T06:08:46.826Z,83.24
2022-09-12T06:11:16.712Z,82.06
2022-09-12T06:13:43.634Z,81.74
2022-09-12T06:16:13.523Z,82.15
2022-09-12T06:18:41.547Z,81.04
2022-09-12T06:21:10.654Z,81.13
2022-09-12T06:23:37.917Z,81.28
2022-09-12T06:26:05.440Z,80.86
2022-09-12T06:28:33.404Z,80.51
2022-09-12T06:31:25.062Z,80.29
2022-09-12T06:33:53.107Z,80.19
2022-09-12T06:36:24.864Z,79.70
2022-09-12T06:39:21.024Z,79.79
2022-09-12T06:41:49.117Z,79.31
2022-09-12T06:44:22.257Z,79.03
2022-09-12T06:46:49.361Z,79.92
2022-09-12T06:49:17.507Z,79.23
2022-09-12T06:51:44.380Z,78.94
2022-09-12T06:54:13.690Z,79.35
2022-09-12T06:56:40.520Z,79.06
2022-09-12T06:59:06.978Z,78.69
2022-09-12T07:01:36.257Z,79.35
2022-09-12T07:04:04.343Z,78.95
2022-09-12T07:06:42.052Z,78.79
2022-09-12T07:09:11.236Z,78.54
2022-09-12T07:11:39.685Z,78.71
2022-09-12T07:14:08.356Z,78.22
2022-09-12T07:16:36.625Z,78.03
2022-09-12T07:19:05.206Z,77.93
2022-09-12T07:21:41.385Z,77.64
2022-09-12T07:24:09.555Z,77.15
2022-09-12T07:26:36.300Z,77.38
2022-09-12T07:29:32.260Z,77.08
2022-09-12T07:31:49.554Z,76.83
2022-09-12T07:34:15.900Z,76.91
2022-09-12T07:36:42.340Z,76.89
2022-09-12T07:39:09.670Z,76.87
2022-09-12T07:41:36.086Z,76.67
2022-09-12T07:44:06.642Z,76.55
2022-09-12T07:46:33.471Z,76.11
2022-09-12T07:49:01.301Z,76.33
2022-09-12T07:51:30.247Z,76.34
2022-09-12T07:53:56.749Z,76.24
2022-09-12T07:56:28.804Z,76.10
2022-09-12T07:58:56.843Z,75.93
2022-09-12T08:01:23.650Z,75.58
2022-09-12T08:03:54.190Z,75.49
2022-09-12T08:06:24.192Z,75.25
2022-09-12T08:08:51.908Z,75.37
2022-09-12T08:11:20.599Z,75.45
2022-09-12T08:13:52.937Z,74.89
2022-09-12T08:16:23.110Z,75.10
2022-09-12T08:18:50.202Z,74.74
2022-09-12T08:21:28.762Z,74.30
2022-09-12T08:24:00.983Z,74.11
2022-09-12T08:26:27.967Z,73.04
2022-09-12T08:28:54.581Z,73.33
2022-09-12T08:31:23.475Z,73.06
2022-09-12T08:33:51.419Z,72.86
2022-09-12T08:36:21.289Z,72.70
2022-09-12T08:38:49.589Z,72.28
2022-09-12T08:41:18.967Z,72.12
2022-09-12T08:44:05.445Z,72.14
2022-09-12T08:46:45.254Z,72.20
2022-09-12T08:49:18.481Z,71.40
2022-09-12T08:51:45.359Z,71.03
2022-09-12T08:54:22.609Z,70.52
2022-09-12T08:56:49.105Z,70.68
2022-09-12T08:59:16.095Z,70.15
2022-09-12T09:01:45.748Z,69.88
2022-09-12T09:04:15.276Z,69.99
2022-09-12T09:07:06.572Z,69.66
2022-09-12T09:09:45.140Z,69.03
2022-09-12T09:12:26.849Z,69.20
2022-09-12T09:15:11.950Z,69.01
2022-09-12T09:17:45.389Z,68.06
2022-09-12T09:20:34.260Z,67.86
2022-09-12T09:23:17.432Z,67.64
2022-09-12T09:25:53.785Z,66.37
2022-09-12T09:28:45.215Z,66.51
2022-09-12T09:31:16.131Z,67.27
2022-09-12T09:33:43.718Z,66.28
2022-09-12T09:36:31.808Z,65.80
2022-09-12T09:39:09.650Z,65.71
2022-09-12T09:41:55.001Z,64.75
2022-09-12T09:44:21.678Z,64.71
2022-09-12T09:46:53.838Z,64.22
2022-09-12T09:49:21.279Z,63.89
2022-09-12T09:51:48.493Z,63.71
2022-09-12T09:54:24.860Z,63.60
2022-09-12T09:56:51.620Z,63.66
2022-09-12T09:59:33.219Z,63.89
2022-09-12T10:02:24.177Z,63.00
2022-09-12T10:04:58.813Z,62.69
2022-09-12T10:07:26.657Z,61.85
2022-09-12T10:10:19.541Z,61.79
2022-09-12T10:12:46.152Z,61.33
2022-09-12T10:15:18.781Z,60.79
2022-09-12T10:17:48.237Z,60.16
2022-09-12T10:20:29.952Z,60.68
2022-09-12T10:22:58.018Z,60.09
2022-09-12T10:25:26.005Z,59.34
2022-09-12T10:27:56.269Z,59.57
2022-09-12T10:30:28.062Z,59.37
2022-09-12T10:32:59.833Z,58.94
2022-09-12T10:35:34.478Z,58.57
2022-09-12T10:38:12.368Z,58.62
2022-09-12T10:40:43.165Z,58.34
2022-09-12T10:43:35.111Z,57.87
2022-09-12T10:46:22.763Z,57.54
2022-09-12T10:48:50.754Z,57.34
2022-09-12T10:51:26.052Z,57.19
2022-09-12T10:54:02.012Z,57.27
2022-09-12T10:56:32.631Z,57.01
2022-09-12T10:59:36.544Z,56.54
2022-09-12T11:02:22.195Z,56.31
2022-09-12T11:05:07.923Z,56.21
2022-09-12T11:07:38.701Z,55.90
2022-09-12T11:10:44.145Z,55.84
2022-09-12T11:13:38.999Z,55.44
2022-09-12T11:16:34.488Z,55.86
2022-09-12T11:19:22.234Z,55.10
2022-09-12T11:22:22.798Z,54.08
2022-09-12T11:25:07.633Z,54.20
2022-09-12T11:27:52.790Z,54.41
2022-09-12T11:30:19.424Z,54.11
2022-09-12T11:33:33.574Z,54.45
2022-09-12T11:36:04.438Z,53.66
2022-09-12T11:38:51.983Z,53.29
2022-09-12T11:41:23.125Z,52.87
2022-09-12T11:44:12.444Z,52.11
2022-09-12T11:46:41.828Z,51.34
2022-09-12T11:49:14.333Z,51.21
2022-09-12T11:51:55.460Z,51.02
2022-09-12T11:54:30.412Z,51.22
2022-09-12T11:57:16.762Z,50.37
2022-09-12T12:00:02.112Z,49.81
2022-09-12T12:02:40.174Z,49.53
2022-09-12T12:05:22.548Z,49.63
2022-09-12T12:08:01.056Z,49.74
2022-09-12T12:10:35.586Z,49.03
2022-09-12T12:13:12.047Z,48.76
2022-09-12T12:15:47.117Z,48.61
2022-09-12T12:18:24.291Z,48.26
2022-09-12T12:20:51.978Z,47.60
2022-09-12T12:23:28.571Z,48.18
2022-09-12T12:25:57.795Z,47.54
2022-09-12T12:28:42.524Z,47.70
2022-09-12T12:31:10.449Z,47.11
2022-09-12T12:33:39.823Z,46.75
2022-09-12T12:36:09.814Z,46.48
2022-09-12T12:38:38.381Z,46.09
2022-09-12T12:41:17.053Z,45.95
2022-09-12T12:43:50.742Z,46.22
2022-09-12T12:46:20.183Z,44.94
2022-09-12T12:48:49.990Z,45.36
2022-09-12T12:51:37.119Z,44.78
2022-09-12T12:54:25.499Z,45.36
2022-09-12T12:57:01.340Z,44.18
2022-09-12T12:59:28.591Z,43.94
2022-09-12T13:01:58.385Z,44.03
2022-09-12T13:04:28.605Z,43.97
2022-09-12T13:06:59.267Z,43.95
2022-09-12T13:09:34.593Z,43.89
2022-09-12T13:12:08.877Z,43.42
2022-09-12T13:14:49.694Z,43.23
2022-09-12T13:17:27.824Z,42.34
2022-09-12T13:20:26.795Z,42.09
2022-09-12T13:22:52.953Z,42.48
2022-09-12T13:25:31.253Z,42.23
2022-09-12T13:28:15.883Z,41.82
2022-09-12T13:30:54.342Z,41.88
2022-09-12T13:33:39.272Z,42.09
2022-09-12T13:36:23.783Z,41.96
2022-09-12T13:38:54.367Z,42.05
2022-09-12T13:41:38.839Z,41.56
2022-09-12T13:44:10.609Z,41.21
2022-09-12T13:46:37.862Z,41.79
2022-09-12T13:49:15.851Z,40.63
2022-09-12T13:51:43.361Z,40.77
2022-09-12T13:54:21.327Z,40.80
2022-09-12T13:56:50.240Z,40.38
2022-09-12T13:59:16.678Z,40.25
2022-09-12T14:01:46.285Z,40.22
2022-09-12T14:04:37.606Z,40.28
2022-09-12T14:07:22.077Z,39.64
2022-09-12T14:09:57.731Z,39.38
2022-09-12T14:12:32.318Z,39.01
2022-09-12T14:14:58.829Z,38.81
2022-09-12T14:17:31.733Z,38.90
2022-09-12T14:20:23.179Z,38.59
2022-09-12T14:22:51.589Z,38.92
2022-09-12T14:25:21.739Z,39.02
2022-09-12T14:27:52.598Z,38.92
2022-09-12T14:30:33.116Z,38.47
2022-09-12T14:33:05.440Z,39.12
2022-09-12T14:35:35.325Z,38.93
2022-09-12T14:38:16.972Z,38.51
2022-09-12T14:40:52.937Z,39.17
2022-09-12T14:43:42.976Z,39.41
2022-09-12T14:46:23.155Z,39.15
2022-09-12T14:48:53.451Z,38.50
2022-09-12T14:51:30.950Z,38.25
2022-09-12T14:53:58.624Z,38.31
2022-09-12T14:56:43.321Z,38.37
2022-09-12T14:59:31.460Z,37.89
2022-09-12T15:02:22.877Z,37.61
2022-09-12T15:04:55.226Z,37.38
2022-09-12T15:07:39.934Z,37.62
2022-09-12T15:10:25.134Z,37.52
2022-09-12T15:13:10.891Z,37.72
2022-09-12T15:15:40.744Z,37.65
2022-09-12T15:18:07.489Z,37.99
2022-09-12T15:20:42.541Z,37.95
2022-09-12T15:23:44.889Z,37.88
2022-09-12T15:26:17.377Z,37.73
2022-09-12T15:28:44.784Z,38.59
2022-09-12T15:31:25.442Z,38.46
2022-09-12T15:33:52.675Z,38.04
2022-09-12T15:36:21.612Z,38.38
2022-09-12T15:38:51.537Z,38.83
2022-09-12T15:41:23.517Z,38.67
2022-09-12T15:43:50.709Z,39.19
2022-09-12T15:46:18.545Z,39.20
2022-09-12T15:48:45.458Z,39.30
2022-09-12T15:51:18.486Z,39.32
2022-09-12T15:53:45.997Z,39.68
2022-09-12T15:56:12.679Z,39.69
2022-09-12T15:58:54.701Z,39.84
2022-09-12T16:01:26.885Z,40.30
2022-09-12T16:03:53.380Z,40.24
2022-09-12T16:06:19.928Z,40.28
2022-09-12T16:08:46.636Z,40.55
2022-09-12T16:11:32.127Z,40.47
2022-09-12T16:13:59.748Z,40.49
2022-09-12T16:16:26.423Z,40.70
2022-09-12T16:18:52.852Z,40.50
2022-09-12T16:21:19.213Z,40.79
2022-09-12T16:23:47.131Z,40.63
2022-09-12T16:26:14.192Z,41.29
2022-09-12T16:28:40.713Z,41.07
2022-09-12T16:31:09.026Z,40.98
2022-09-12T16:36:07.398Z,41.16
2022-09-12T16:38:35.838Z,40.82
2022-09-12T16:41:04.228Z,41.69
2022-09-12T16:43:32.547Z,41.71
2022-09-12T16:46:09.663Z,41.36
2022-09-12T16:48:37.794Z,42.02
2022-09-12T16:51:06.809Z,41.92
2022-09-12T16:53:35.313Z,42.06
2022-09-12T16:56:01.786Z,42.22
2022-09-12T16:58:28.356Z,42.34
2022-09-12T17:01:06.959Z,42.22
2022-09-12T17:03:35.751Z,41.99
2022-09-12T17:06:11.925Z,43.37
2022-09-12T17:08:41.097Z,42.72
2022-09-12T17:11:13.885Z,42.88
2022-09-12T17:14:03.433Z,43.50
2022-09-12T17:16:28.285Z,43.67
2022-09-12T17:18:55.101Z,43.27
2022-09-12T17:21:21.712Z,44.24
2022-09-12T17:23:48.571Z,44.71
2022-09-12T17:26:15.170Z,44.59
2022-09-12T17:28:41.896Z,44.87
2022-09-12T17:31:10.786Z,45.71
2022-09-12T17:33:37.642Z,45.21
2022-09-12T17:36:16.265Z,45.97
2022-09-12T17:38:44.291Z,45.94
2022-09-12T17:41:17.439Z,46.45
2022-09-12T17:43:50.781Z,46.45
2022-09-12T17:46:21.165Z,47.53
2022-09-12T17:48:56.323Z,47.84
2022-09-12T17:51:24.938Z,47.92
2022-09-12T17:53:59.189Z,47.47
2022-09-12T17:56:28.044Z,47.91
2022-09-12T17:58:56.409Z,49.04
2022-09-12T18:01:42.319Z,48.70
2022-09-12T18:04:10.656Z,48.74
2022-09-12T18:06:37.603Z,49.82
2022-09-12T18:09:06.361Z,49.58
2022-09-12T18:11:33.513Z,50.79
2022-09-12T18:14:00.355Z,50.75
2022-09-12T18:16:28.513Z,50.45
2022-09-12T18:18:55.386Z,50.11
2022-09-12T18:21:21.788Z,51.23
2022-09-12T18:23:48.152Z,51.24
2022-09-12T18:26:14.769Z,51.93
2022-09-12T18:28:43.759Z,51.74
2022-09-12T18:31:16.422Z,52.67
2022-09-12T18:33:44.881Z,52.65
2022-09-12T18:36:12.903Z,51.74
2022-09-12T18:38:40.430Z,51.96
2022-09-12T18:41:09.271Z,52.35
2022-09-12T18:43:37.289Z,52.56
2022-09-12T18:46:05.359Z,53.14
2022-09-12T18:48:32.874Z,53.18
2022-09-12T18:51:08.243Z,53.32
2022-09-12T18:53:36.743Z,53.50
2022-09-12T18:56:06.216Z,54.41
2022-09-12T18:58:32.561Z,54.33
2022-09-12T19:00:59.274Z,54.32
2022-09-12T19:03:25.851Z,54.45
2022-09-12T19:05:52.258Z,54.76
2022-09-12T19:08:20.829Z,55.56
2022-09-12T19:10:54.899Z,54.51
2022-09-12T19:13:21.377Z,54.73
2022-09-12T19:15:47.819Z,55.33
2022-09-12T19:18:14.255Z,55.82
2022-09-12T19:20:40.611Z,55.53
2022-09-12T19:23:06.963Z,56.31
2022-09-12T19:25:33.506Z,56.59
2022-09-12T19:27:59.925Z,56.89
2022-09-12T19:30:26.360Z,57.78
2022-09-12T19:32:52.783Z,56.86
2022-09-12T19:35:19.167Z,56.81
2022-09-12T19:37:45.624Z,57.57
2022-09-12T19:40:12.079Z,56.78
2022-09-12T19:42:38.451Z,57.65
2022-09-12T19:45:05.569Z,58.40
2022-09-12T19:47:32.022Z,58.27
2022-09-12T19:49:58.356Z,58.29
2022-09-12T19:52:24.790Z,58.22
2022-09-12T19:54:51.208Z,58.52
2022-09-12T19:57:17.597Z,59.04
2022-09-12T19:59:45.061Z,59.42
2022-09-12T20:02:11.468Z,59.27
2022-09-12T20:04:39.009Z,59.15
2022-09-12T20:07:05.388Z,59.56
2022-09-12T20:09:31.800Z,59.22
2022-09-12T20:11:58.133Z,59.31
2022-09-12T20:14:24.495Z,59.67
2022-09-12T20:16:50.870Z,59.90
2022-09-12T20:19:17.221Z,59.63
2022-09-12T20:21:43.648Z,59.28
2022-09-12T20:24:12.447Z,59.10
2022-09-12T20:26:39.827Z,59.93
2022-09-12T20:29:06.711Z,60.46
2022-09-12T20:31:34.880Z,60.07
2022-09-12T20:34:01.411Z,60.10
2022-09-12T20:36:28.167Z,60.05
2022-09-12T20:38:57.390Z,60.22
2022-09-12T20:41:24.839Z,61.15
2022-09-12T20:43:55.413Z,61.22
2022-09-12T20:46:22.905Z,60.38
2022-09-12T20:48:50.280Z,61.49
2022-09-12T20:51:16.747Z,60.91
2022-09-12T20:53:43.129Z,61.19
2022-09-12T20:56:09.563Z,60.59
2022-09-12T20:58:38.371Z,61.06
2022-09-12T21:01:09.346Z,60.44
2022-09-12T21:03:39.418Z,61.54
2022-09-12T21:06:06.981Z,60.92
2022-09-12T21:08:34.466Z,61.64
2022-09-12T21:11:01.059Z,61.84
2022-09-12T21:13:28.002Z,61.94
2022-09-12T21:16:02.216Z,61.37
2022-09-12T21:18:28.847Z,62.04
2022-09-12T21:20:55.911Z,61.66
2022-09-12T21:23:24.050Z,62.11
2022-09-12T21:25:52.675Z,62.17
2022-09-12T21:28:20.117Z,61.61
2022-09-12T21:30:50.214Z,61.70
2022-09-12T21:33:17.582Z,62.49
2022-09-12T21:35:44.766Z,61.79
2022-09-12T21:38:11.627Z,62.49
2022-09-12T21:40:38.026Z,62.49
2022-09-12T21:43:05.196Z,62.14
2022-09-12T21:45:32.800Z,62.40
2022-09-12T21:47:59.191Z,62.70
2022-09-12T21:50:26.044Z,62.20
2022-09-12T21:52:52.672Z,62.60
2022-09-12T21:55:19.474Z,62.61
2022-09-12T21:57:46.679Z,63.66
2022-09-12T22:00:15.806Z,63.60
2022-09-12T22:02:42.441Z,63.85
2022-09-12T22:05:10.288Z,64.01
2022-09-12T22:07:37.886Z,63.81
2022-09-12T22:10:04.868Z,63.93
2022-09-12T22:12:31.322Z,63.59
2022-09-12T22:14:57.772Z,64.49
2022-09-12T22:17:24.208Z,64.17
2022-09-12T22:19:50.712Z,64.08
2022-09-12T22:22:35.750Z,64.27
2022-09-12T22:25:02.376Z,64.40
2022-09-12T22:27:29.122Z,64.55
2022-09-12T22:29:55.689Z,64.56
2022-09-12T22:32:22.048Z,64.25
2022-09-12T22:34:48.446Z,64.72
2022-09-12T22:37:14.802Z,64.69
2022-09-12T22:39:41.219Z,65.11
2022-09-12T22:42:09.152Z,65.17
2022-09-12T22:44:35.741Z,65.24
2022-09-12T22:47:02.226Z,65.11
2022-09-12T22:49:28.607Z,65.29
2022-09-12T22:51:54.984Z,65.72
2022-09-12T22:54:21.326Z,64.83
2022-09-12T22:56:47.750Z,65.42
2022-09-12T22:59:14.115Z,65.09
2022-09-12T23:01:40.668Z,65.78
2022-09-12T23:04:07.113Z,65.76
2022-09-12T23:06:33.494Z,65.46
2022-09-12T23:08:59.893Z,65.96
2022-09-12T23:11:26.817Z,66.17
2022-09-12T23:13:53.352Z,66.32
2022-09-12T23:16:22.185Z,66.33
2022-09-12T23:18:49.652Z,66.16
2022-09-12T23:21:18.684Z,66.92
2022-09-12T23:23:45.168Z,66.36
2022-09-12T23:26:14.314Z,66.46
2022-09-12T23:28:42.337Z,66.82
2022-09-12T23:31:09.637Z,66.79
2022-09-12T23:33:36.605Z,67.12
2022-09-12T23:36:06.287Z,67.06
2022-09-12T23:38:34.357Z,66.95
2022-09-12T23:41:01.809Z,67.01
2022-09-12T23:43:29.729Z,67.08
2022-09-12T23:45:56.912Z,67.57
2022-09-12T23:48:23.626Z,67.54
2022-09-12T23:50:50.988Z,67.38
2022-09-12T23:53:18.326Z,67.60
2022-09-12T23:55:44.825Z,67.74
2022-09-12T23:58:12.072Z,67.77
